sensor_id;sensor_type;location;lat;lon;timestamp;temperature;humidity
20364;DHT22;10340;53.664;9.908;2023-03-05T00:01:27;2.80;99.90
20364;DHT22;10340;53.664;9.908;2023-03-05T00:03:55;2.80;99.90
20364;DHT22;10340;53.664;9.908;2023-03-05T00:06:24;2.80;99.90
20364;DHT22;10340;53.664;9.908;2023-03-05T00:08:52;2.80;99.90
20364;DHT22;10340;53.664;9.908;2023-03-05T00:11:21;2.80;99.90
20364;DHT22;10340;53.664;9.908;2023-03-05T00:13:52;2.80;99.90
20364;DHT22;10340;53.664;9.908;2023-03-05T00:16:20;2.90;99.90
20364;DHT22;10340;53.664;9.908;2023-03-05T00:18:47;2.90;99.90
20364;DHT22;10340;53.664;9.908;2023-03-05T00:21:20;2.90;99.90
20364;DHT22;10340;53.664;9.908;2023-03-05T00:23:47;2.90;99.90
20364;DHT22;10340;53.664;9.908;2023-03-05T00:26:15;3.00;99.90
20364;DHT22;10340;53.664;9.908;2023-03-05T00:28:42;3.00;99.90
20364;DHT22;10340;53.664;9.908;2023-03-05T00:31:10;3.00;99.90
20364;DHT22;10340;53.664;9.908;2023-03-05T00:33:37;2.90;99.90
20364;DHT22;10340;53.664;9.908;2023-03-05T00:36:05;2.90;99.90
20364;DHT22;10340;53.664;9.908;2023-03-05T00:38:33;2.80;99.90
20364;DHT22;10340;53.664;9.908;2023-03-05T00:41:00;2.80;99.90
20364;DHT22;10340;53.664;9.908;2023-03-05T00:43:28;2.70;99.90
20364;DHT22;10340;53.664;9.908;2023-03-05T00:45:55;2.70;99.90
20364;DHT22;10340;53.664;9.908;2023-03-05T00:48:23;2.60;99.90
20364;DHT22;10340;53.664;9.908;2023-03-05T00:50:51;2.60;99.90
20364;DHT22;10340;53.664;9.908;2023-03-05T00:53:18;2.50;99.90
20364;DHT22;10340;53.664;9.908;2023-03-05T00:55:45;2.50;99.90
20364;DHT22;10340;53.664;9.908;2023-03-05T00:58:12;2.50;99.90
20364;DHT22;10340;53.664;9.908;2023-03-05T01:00:39;2.50;99.90
20364;DHT22;10340;53.664;9.908;2023-03-05T01:03:06;2.40;99.90
20364;DHT22;10340;53.664;9.908;2023-03-05T01:05:35;2.40;99.90
20364;DHT22;10340;53.664;9.908;2023-03-05T01:08:02;2.40;99.90
20364;DHT22;10340;53.664;9.908;2023-03-05T01:10:29;2.30;99.90
20364;DHT22;10340;53.664;9.908;2023-03-05T01:12:56;2.30;99.90
20364;DHT22;10340;53.664;9.908;2023-03-05T01:15:24;2.20;99.90
20364;DHT22;10340;53.664;9.908;2023-03-05T01:17:51;2.20;99.90
20364;DHT22;10340;53.664;9.908;2023-03-05T01:20:20;2.10;99.90
20364;DHT22;10340;53.664;9.908;2023-03-05T01:22:48;2.10;99.90
20364;DHT22;10340;53.664;9.908;2023-03-05T01:25:16;2.10;99.90
20364;DHT22;10340;53.664;9.908;2023-03-05T01:27:43;2.10;99.90
20364;DHT22;10340;53.664;9.908;2023-03-05T01:30:12;2.10;99.90
20364;DHT22;10340;53.664;9.908;2023-03-05T01:32:40;2.10;99.90
20364;DHT22;10340;53.664;9.908;2023-03-05T01:35:09;2.00;99.90
20364;DHT22;10340;53.664;9.908;2023-03-05T01:37:37;2.00;99.90
20364;DHT22;10340;53.664;9.908;2023-03-05T01:40:06;2.00;99.90
20364;DHT22;10340;53.664;9.908;2023-03-05T01:42:33;2.00;99.90
20364;DHT22;10340;53.664;9.908;2023-03-05T01:45:03;2.00;99.90
20364;DHT22;10340;53.664;9.908;2023-03-05T01:47:31;2.00;99.90
20364;DHT22;10340;53.664;9.908;2023-03-05T01:49:58;2.00;99.90
20364;DHT22;10340;53.664;9.908;2023-03-05T01:52:27;2.00;99.90
20364;DHT22;10340;53.664;9.908;2023-03-05T01:54:57;2.00;99.90
20364;DHT22;10340;53.664;9.908;2023-03-05T01:57:29;2.10;99.90
20364;DHT22;10340;53.664;9.908;2023-03-05T02:00:02;2.00;99.90
20364;DHT22;10340;53.664;9.908;2023-03-05T02:02:30;2.00;99.90
20364;DHT22;10340;53.664;9.908;2023-03-05T02:05:00;2.00;99.90
20364;DHT22;10340;53.664;9.908;2023-03-05T02:07:30;2.00;99.90
20364;DHT22;10340;53.664;9.908;2023-03-05T02:09:57;1.90;99.90
20364;DHT22;10340;53.664;9.908;2023-03-05T02:12:24;1.90;99.90
20364;DHT22;10340;53.664;9.908;2023-03-05T02:14:53;1.90;99.90
20364;DHT22;10340;53.664;9.908;2023-03-05T02:17:26;1.90;99.90
20364;DHT22;10340;53.664;9.908;2023-03-05T02:19:55;1.80;99.90
20364;DHT22;10340;53.664;9.908;2023-03-05T02:22:23;1.80;99.90
20364;DHT22;10340;53.664;9.908;2023-03-05T02:24:50;1.80;99.90
20364;DHT22;10340;53.664;9.908;2023-03-05T02:27:20;1.80;99.90
20364;DHT22;10340;53.664;9.908;2023-03-05T02:29:48;1.80;99.90
20364;DHT22;10340;53.664;9.908;2023-03-05T02:32:16;1.70;99.90
20364;DHT22;10340;53.664;9.908;2023-03-05T02:34:43;1.70;99.90
20364;DHT22;10340;53.664;9.908;2023-03-05T02:37:10;1.70;99.90
20364;DHT22;10340;53.664;9.908;2023-03-05T02:39:39;1.70;99.90
20364;DHT22;10340;53.664;9.908;2023-03-05T02:42:06;1.70;99.90
20364;DHT22;10340;53.664;9.908;2023-03-05T02:44:33;1.70;99.90
20364;DHT22;10340;53.664;9.908;2023-03-05T02:47:00;1.70;99.90
20364;DHT22;10340;53.664;9.908;2023-03-05T02:49:27;1.50;99.90
20364;DHT22;10340;53.664;9.908;2023-03-05T02:51:54;1.70;99.90
20364;DHT22;10340;53.664;9.908;2023-03-05T02:54:21;1.70;99.90
20364;DHT22;10340;53.664;9.908;2023-03-05T02:56:50;1.70;99.90
20364;DHT22;10340;53.664;9.908;2023-03-05T03:01:44;1.70;99.90
20364;DHT22;10340;53.664;9.908;2023-03-05T03:04:11;1.70;99.90
20364;DHT22;10340;53.664;9.908;2023-03-05T03:06:38;1.70;99.90
20364;DHT22;10340;53.664;9.908;2023-03-05T03:09:05;1.70;99.90
20364;DHT22;10340;53.664;9.908;2023-03-05T03:11:32;1.70;99.90
20364;DHT22;10340;53.664;9.908;2023-03-05T03:14:00;1.60;99.90
20364;DHT22;10340;53.664;9.908;2023-03-05T03:16:28;1.60;99.90
20364;DHT22;10340;53.664;9.908;2023-03-05T03:18:55;1.60;99.90
20364;DHT22;10340;53.664;9.908;2023-03-05T03:21:23;1.60;99.90
20364;DHT22;10340;53.664;9.908;2023-03-05T03:23:51;1.60;99.90
20364;DHT22;10340;53.664;9.908;2023-03-05T03:26:19;1.60;99.90
20364;DHT22;10340;53.664;9.908;2023-03-05T03:28:46;1.60;99.90
20364;DHT22;10340;53.664;9.908;2023-03-05T03:31:14;1.50;99.90
20364;DHT22;10340;53.664;9.908;2023-03-05T03:33:41;1.60;99.90
20364;DHT22;10340;53.664;9.908;2023-03-05T03:36:09;1.50;99.90
20364;DHT22;10340;53.664;9.908;2023-03-05T03:38:36;1.50;99.90
20364;DHT22;10340;53.664;9.908;2023-03-05T03:41:05;1.40;99.90
20364;DHT22;10340;53.664;9.908;2023-03-05T03:43:32;1.40;99.90
20364;DHT22;10340;53.664;9.908;2023-03-05T03:45:59;1.30;99.90
20364;DHT22;10340;53.664;9.908;2023-03-05T03:48:28;1.30;99.90
20364;DHT22;10340;53.664;9.908;2023-03-05T03:50:55;1.30;99.90
20364;DHT22;10340;53.664;9.908;2023-03-05T03:53:22;1.20;99.90
20364;DHT22;10340;53.664;9.908;2023-03-05T03:55:49;1.20;99.90
20364;DHT22;10340;53.664;9.908;2023-03-05T03:58:15;1.20;99.90
20364;DHT22;10340;53.664;9.908;2023-03-05T04:00:42;1.20;99.90
20364;DHT22;10340;53.664;9.908;2023-03-05T04:03:09;1.20;99.90
20364;DHT22;10340;53.664;9.908;2023-03-05T04:05:38;1.20;99.90
20364;DHT22;10340;53.664;9.908;2023-03-05T04:08:05;1.20;99.90
20364;DHT22;10340;53.664;9.908;2023-03-05T04:10:36;1.20;99.90
20364;DHT22;10340;53.664;9.908;2023-03-05T04:13:03;1.20;99.90
20364;DHT22;10340;53.664;9.908;2023-03-05T04:15:30;1.20;99.90
20364;DHT22;10340;53.664;9.908;2023-03-05T04:17:57;1.20;99.90
20364;DHT22;10340;53.664;9.908;2023-03-05T04:20:25;1.20;99.90
20364;DHT22;10340;53.664;9.908;2023-03-05T04:22:53;1.20;99.90
20364;DHT22;10340;53.664;9.908;2023-03-05T04:25:20;1.20;99.90
20364;DHT22;10340;53.664;9.908;2023-03-05T04:27:47;1.20;99.90
20364;DHT22;10340;53.664;9.908;2023-03-05T04:30:14;1.20;99.90
20364;DHT22;10340;53.664;9.908;2023-03-05T04:32:41;1.20;99.90
20364;DHT22;10340;53.664;9.908;2023-03-05T04:35:09;1.30;99.90
20364;DHT22;10340;53.664;9.908;2023-03-05T04:37:36;1.30;99.90
20364;DHT22;10340;53.664;9.908;2023-03-05T04:40:06;1.30;99.90
20364;DHT22;10340;53.664;9.908;2023-03-05T04:42:33;1.30;99.90
20364;DHT22;10340;53.664;9.908;2023-03-05T04:45:00;1.30;99.90
20364;DHT22;10340;53.664;9.908;2023-03-05T04:47:27;1.40;99.90
20364;DHT22;10340;53.664;9.908;2023-03-05T04:49:54;1.30;99.90
20364;DHT22;10340;53.664;9.908;2023-03-05T04:52:21;1.40;99.90
20364;DHT22;10340;53.664;9.908;2023-03-05T04:54:48;1.40;99.90
20364;DHT22;10340;53.664;9.908;2023-03-05T04:57:16;1.40;99.90
20364;DHT22;10340;53.664;9.908;2023-03-05T04:59:44;1.40;99.90
20364;DHT22;10340;53.664;9.908;2023-03-05T05:02:11;1.40;99.90
20364;DHT22;10340;53.664;9.908;2023-03-05T05:04:38;1.40;99.90
20364;DHT22;10340;53.664;9.908;2023-03-05T05:07:09;1.40;99.90
20364;DHT22;10340;53.664;9.908;2023-03-05T05:09:37;1.50;99.90
20364;DHT22;10340;53.664;9.908;2023-03-05T05:12:04;1.40;99.90
20364;DHT22;10340;53.664;9.908;2023-03-05T05:14:34;1.40;99.90
20364;DHT22;10340;53.664;9.908;2023-03-05T05:17:01;1.40;99.90
20364;DHT22;10340;53.664;9.908;2023-03-05T05:19:29;1.30;99.90
20364;DHT22;10340;53.664;9.908;2023-03-05T05:21:56;1.40;99.90
20364;DHT22;10340;53.664;9.908;2023-03-05T05:24:23;1.40;99.90
20364;DHT22;10340;53.664;9.908;2023-03-05T05:26:53;1.40;99.90
20364;DHT22;10340;53.664;9.908;2023-03-05T05:29:20;1.40;99.90
20364;DHT22;10340;53.664;9.908;2023-03-05T05:31:48;1.40;99.90
20364;DHT22;10340;53.664;9.908;2023-03-05T05:34:15;1.40;99.90
20364;DHT22;10340;53.664;9.908;2023-03-05T05:36:42;1.40;99.90
20364;DHT22;10340;53.664;9.908;2023-03-05T05:39:09;1.40;99.90
20364;DHT22;10340;53.664;9.908;2023-03-05T05:41:36;1.40;99.90
20364;DHT22;10340;53.664;9.908;2023-03-05T05:44:03;1.40;99.90
20364;DHT22;10340;53.664;9.908;2023-03-05T05:46:30;1.40;99.90
20364;DHT22;10340;53.664;9.908;2023-03-05T05:48:59;1.40;99.90
20364;DHT22;10340;53.664;9.908;2023-03-05T05:51:26;1.40;99.90
20364;DHT22;10340;53.664;9.908;2023-03-05T05:53:53;1.40;99.90
20364;DHT22;10340;53.664;9.908;2023-03-05T05:56:20;1.40;99.90
20364;DHT22;10340;53.664;9.908;2023-03-05T05:58:47;1.40;99.90
20364;DHT22;10340;53.664;9.908;2023-03-05T06:01:16;1.50;99.90
20364;DHT22;10340;53.664;9.908;2023-03-05T06:03:44;1.50;99.90
20364;DHT22;10340;53.664;9.908;2023-03-05T06:06:15;1.50;99.90
20364;DHT22;10340;53.664;9.908;2023-03-05T06:08:43;1.50;99.90
20364;DHT22;10340;53.664;9.908;2023-03-05T06:11:10;1.50;99.90
20364;DHT22;10340;53.664;9.908;2023-03-05T06:13:38;1.50;99.90
20364;DHT22;10340;53.664;9.908;2023-03-05T06:16:07;1.50;99.90
20364;DHT22;10340;53.664;9.908;2023-03-05T06:18:36;1.60;99.90
20364;DHT22;10340;53.664;9.908;2023-03-05T06:21:04;1.30;99.90
20364;DHT22;10340;53.664;9.908;2023-03-05T06:23:34;1.50;99.90
20364;DHT22;10340;53.664;9.908;2023-03-05T06:26:02;1.60;99.90
20364;DHT22;10340;53.664;9.908;2023-03-05T06:28:30;1.60;99.90
20364;DHT22;10340;53.664;9.908;2023-03-05T06:31:01;1.60;99.90
20364;DHT22;10340;53.664;9.908;2023-03-05T06:33:29;1.60;99.90
20364;DHT22;10340;53.664;9.908;2023-03-05T06:35:56;1.60;99.90
20364;DHT22;10340;53.664;9.908;2023-03-05T06:38:23;1.60;99.90
20364;DHT22;10340;53.664;9.908;2023-03-05T06:40:52;1.70;99.90
20364;DHT22;10340;53.664;9.908;2023-03-05T06:43:18;1.70;99.90
20364;DHT22;10340;53.664;9.908;2023-03-05T06:45:45;1.60;99.90
20364;DHT22;10340;53.664;9.908;2023-03-05T06:48:12;1.60;99.90
20364;DHT22;10340;53.664;9.908;2023-03-05T06:50:39;1.70;99.90
20364;DHT22;10340;53.664;9.908;2023-03-05T06:53:06;1.80;99.90
20364;DHT22;10340;53.664;9.908;2023-03-05T06:55:35;1.70;99.90
20364;DHT22;10340;53.664;9.908;2023-03-05T06:58:07;1.80;99.90
20364;DHT22;10340;53.664;9.908;2023-03-05T07:00:34;1.80;99.90
20364;DHT22;10340;53.664;9.908;2023-03-05T07:03:01;1.90;99.90
20364;DHT22;10340;53.664;9.908;2023-03-05T07:05:28;1.90;99.90
20364;DHT22;10340;53.664;9.908;2023-03-05T07:07:55;1.90;99.90
20364;DHT22;10340;53.664;9.908;2023-03-05T07:10:22;2.00;99.90
20364;DHT22;10340;53.664;9.908;2023-03-05T07:12:49;2.00;99.90
20364;DHT22;10340;53.664;9.908;2023-03-05T07:15:17;2.00;99.90
20364;DHT22;10340;53.664;9.908;2023-03-05T07:17:44;2.10;99.90
20364;DHT22;10340;53.664;9.908;2023-03-05T07:20:12;2.10;99.90
20364;DHT22;10340;53.664;9.908;2023-03-05T07:22:39;2.10;99.90
20364;DHT22;10340;53.664;9.908;2023-03-05T07:25:07;2.10;99.90
20364;DHT22;10340;53.664;9.908;2023-03-05T07:27:35;2.10;99.90
20364;DHT22;10340;53.664;9.908;2023-03-05T07:30:02;2.10;99.90
20364;DHT22;10340;53.664;9.908;2023-03-05T07:32:31;2.10;99.90
20364;DHT22;10340;53.664;9.908;2023-03-05T07:35:00;2.10;99.90
20364;DHT22;10340;53.664;9.908;2023-03-05T07:37:27;2.10;99.90
20364;DHT22;10340;53.664;9.908;2023-03-05T07:39:54;2.10;99.90
20364;DHT22;10340;53.664;9.908;2023-03-05T07:42:21;2.00;99.90
20364;DHT22;10340;53.664;9.908;2023-03-05T07:44:48;2.00;99.90
20364;DHT22;10340;53.664;9.908;2023-03-05T07:47:15;2.00;99.90
20364;DHT22;10340;53.664;9.908;2023-03-05T07:49:44;2.10;99.90
20364;DHT22;10340;53.664;9.908;2023-03-05T07:52:11;2.10;99.90
20364;DHT22;10340;53.664;9.908;2023-03-05T07:54:38;2.10;99.90
20364;DHT22;10340;53.664;9.908;2023-03-05T07:57:06;2.20;99.90
20364;DHT22;10340;53.664;9.908;2023-03-05T07:59:33;2.20;99.90
20364;DHT22;10340;53.664;9.908;2023-03-05T08:02:00;2.20;99.90
20364;DHT22;10340;53.664;9.908;2023-03-05T08:04:27;2.30;99.90
20364;DHT22;10340;53.664;9.908;2023-03-05T08:06:57;2.40;99.90
20364;DHT22;10340;53.664;9.908;2023-03-05T08:09:26;2.60;99.90
20364;DHT22;10340;53.664;9.908;2023-03-05T08:11:54;2.40;99.90
20364;DHT22;10340;53.664;9.908;2023-03-05T08:14:21;2.50;99.90
20364;DHT22;10340;53.664;9.908;2023-03-05T08:16:48;2.50;99.90
20364;DHT22;10340;53.664;9.908;2023-03-05T08:19:17;2.60;99.90
20364;DHT22;10340;53.664;9.908;2023-03-05T08:21:45;2.70;99.90
20364;DHT22;10340;53.664;9.908;2023-03-05T08:24:13;2.70;99.90
20364;DHT22;10340;53.664;9.908;2023-03-05T08:26:41;2.70;99.90
20364;DHT22;10340;53.664;9.908;2023-03-05T08:29:09;2.90;99.90
20364;DHT22;10340;53.664;9.908;2023-03-05T08:31:37;2.70;99.90
20364;DHT22;10340;53.664;9.908;2023-03-05T08:34:04;2.80;99.90
20364;DHT22;10340;53.664;9.908;2023-03-05T08:36:31;2.80;99.90
20364;DHT22;10340;53.664;9.908;2023-03-05T08:38:58;2.90;99.90
20364;DHT22;10340;53.664;9.908;2023-03-05T08:41:27;3.00;99.90
20364;DHT22;10340;53.664;9.908;2023-03-05T08:43:54;3.00;99.90
20364;DHT22;10340;53.664;9.908;2023-03-05T08:46:21;3.00;99.90
20364;DHT22;10340;53.664;9.908;2023-03-05T08:48:48;3.10;99.90
20364;DHT22;10340;53.664;9.908;2023-03-05T08:51:17;3.00;99.90
20364;DHT22;10340;53.664;9.908;2023-03-05T08:56:12;3.10;99.90
20364;DHT22;10340;53.664;9.908;2023-03-05T08:58:41;3.20;99.90
20364;DHT22;10340;53.664;9.908;2023-03-05T09:01:08;3.40;99.90
20364;DHT22;10340;53.664;9.908;2023-03-05T09:03:35;3.50;99.90
20364;DHT22;10340;53.664;9.908;2023-03-05T09:06:04;3.70;99.90
20364;DHT22;10340;53.664;9.908;2023-03-05T09:08:32;3.70;99.90
20364;DHT22;10340;53.664;9.908;2023-03-05T09:11:01;3.80;99.90
20364;DHT22;10340;53.664;9.908;2023-03-05T09:13:28;3.80;99.90
20364;DHT22;10340;53.664;9.908;2023-03-05T09:15:59;3.80;99.90
20364;DHT22;10340;53.664;9.908;2023-03-05T09:18:27;3.90;99.90
20364;DHT22;10340;53.664;9.908;2023-03-05T09:20:54;4.00;99.90
20364;DHT22;10340;53.664;9.908;2023-03-05T09:23:21;4.00;99.90
20364;DHT22;10340;53.664;9.908;2023-03-05T09:25:48;4.00;99.90
20364;DHT22;10340;53.664;9.908;2023-03-05T09:28:16;4.00;99.90
20364;DHT22;10340;53.664;9.908;2023-03-05T09:30:43;3.90;99.90
20364;DHT22;10340;53.664;9.908;2023-03-05T09:33:11;3.80;99.90
20364;DHT22;10340;53.664;9.908;2023-03-05T09:35:38;3.80;99.90
20364;DHT22;10340;53.664;9.908;2023-03-05T09:38:05;3.80;99.90
20364;DHT22;10340;53.664;9.908;2023-03-05T09:40:40;3.70;99.90
20364;DHT22;10340;53.664;9.908;2023-03-05T09:43:20;3.80;99.90
20364;DHT22;10340;53.664;9.908;2023-03-05T09:46:01;3.90;99.90
20364;DHT22;10340;53.664;9.908;2023-03-05T09:48:47;3.90;99.90
20364;DHT22;10340;53.664;9.908;2023-03-05T09:51:20;3.90;99.90
20364;DHT22;10340;53.664;9.908;2023-03-05T09:53:52;4.00;99.90
20364;DHT22;10340;53.664;9.908;2023-03-05T09:56:24;4.00;99.90
20364;DHT22;10340;53.664;9.908;2023-03-05T09:58:52;4.00;99.90
20364;DHT22;10340;53.664;9.908;2023-03-05T10:01:21;3.90;99.90
20364;DHT22;10340;53.664;9.908;2023-03-05T10:03:57;3.70;99.90
20364;DHT22;10340;53.664;9.908;2023-03-05T10:06:27;3.60;99.90
20364;DHT22;10340;53.664;9.908;2023-03-05T10:08:57;3.50;99.90
20364;DHT22;10340;53.664;9.908;2023-03-05T10:11:36;3.30;99.90
20364;DHT22;10340;53.664;9.908;2023-03-05T10:14:09;3.30;99.90
20364;DHT22;10340;53.664;9.908;2023-03-05T10:16:59;3.20;99.90
20364;DHT22;10340;53.664;9.908;2023-03-05T10:19:59;3.60;99.90
20364;DHT22;10340;53.664;9.908;2023-03-05T10:22:32;3.40;99.90
20364;DHT22;10340;53.664;9.908;2023-03-05T10:25:09;3.50;99.90
20364;DHT22;10340;53.664;9.908;2023-03-05T10:27:46;3.60;99.90
20364;DHT22;10340;53.664;9.908;2023-03-05T10:30:26;3.60;99.90
20364;DHT22;10340;53.664;9.908;2023-03-05T10:33:06;3.80;99.90
20364;DHT22;10340;53.664;9.908;2023-03-05T10:36:07;3.80;99.90
20364;DHT22;10340;53.664;9.908;2023-03-05T10:41:50;4.20;99.90
20364;DHT22;10340;53.664;9.908;2023-03-05T10:44:27;4.60;99.90
20364;DHT22;10340;53.664;9.908;2023-03-05T10:46:58;4.40;99.90
20364;DHT22;10340;53.664;9.908;2023-03-05T10:57:34;4.70;99.90
20364;DHT22;10340;53.664;9.908;2023-03-05T11:00:11;4.70;99.90
20364;DHT22;10340;53.664;9.908;2023-03-05T11:02:56;4.90;99.90
20364;DHT22;10340;53.664;9.908;2023-03-05T11:05:39;4.80;99.90
20364;DHT22;10340;53.664;9.908;2023-03-05T11:08:29;4.70;99.90
20364;DHT22;10340;53.664;9.908;2023-03-05T11:11:12;4.40;99.90
20364;DHT22;10340;53.664;9.908;2023-03-05T11:13:51;4.60;99.90
20364;DHT22;10340;53.664;9.908;2023-03-05T11:16:22;4.50;99.90
20364;DHT22;10340;53.664;9.908;2023-03-05T11:24:07;4.80;99.90
20364;DHT22;10340;53.664;9.908;2023-03-05T11:26:45;5.00;99.90
20364;DHT22;10340;53.664;9.908;2023-03-05T11:29:19;5.10;99.90
20364;DHT22;10340;53.664;9.908;2023-03-05T11:31:46;5.10;99.90
20364;DHT22;10340;53.664;9.908;2023-03-05T11:34:24;5.10;99.90
20364;DHT22;10340;53.664;9.908;2023-03-05T11:37:10;5.10;99.90
20364;DHT22;10340;53.664;9.908;2023-03-05T11:42:14;4.90;99.90
20364;DHT22;10340;53.664;9.908;2023-03-05T11:44:53;4.90;99.90
20364;DHT22;10340;53.664;9.908;2023-03-05T11:47:25;3.60;99.90
20364;DHT22;10340;53.664;9.908;2023-03-05T11:49:58;4.80;99.90
20364;DHT22;10340;53.664;9.908;2023-03-05T11:52:30;4.70;99.90
20364;DHT22;10340;53.664;9.908;2023-03-05T11:55:07;4.70;99.90
20364;DHT22;10340;53.664;9.908;2023-03-05T11:57:42;4.90;99.90
20364;DHT22;10340;53.664;9.908;2023-03-05T12:00:18;5.20;99.90
20364;DHT22;10340;53.664;9.908;2023-03-05T12:02:50;5.40;99.90
20364;DHT22;10340;53.664;9.908;2023-03-05T12:05:18;5.40;99.90
20364;DHT22;10340;53.664;9.908;2023-03-05T12:07:49;5.40;99.90
20364;DHT22;10340;53.664;9.908;2023-03-05T12:10:18;5.40;99.90
20364;DHT22;10340;53.664;9.908;2023-03-05T12:12:49;5.40;99.90
20364;DHT22;10340;53.664;9.908;2023-03-05T12:15:43;5.40;99.90
20364;DHT22;10340;53.664;9.908;2023-03-05T12:18:28;5.40;99.90
20364;DHT22;10340;53.664;9.908;2023-03-05T12:21:03;5.30;99.90
20364;DHT22;10340;53.664;9.908;2023-03-05T12:23:44;5.40;99.90
20364;DHT22;10340;53.664;9.908;2023-03-05T12:26:11;5.50;99.90
20364;DHT22;10340;53.664;9.908;2023-03-05T12:28:57;5.40;99.90
20364;DHT22;10340;53.664;9.908;2023-03-05T12:31:34;5.40;99.90
20364;DHT22;10340;53.664;9.908;2023-03-05T12:34:44;5.70;99.90
20364;DHT22;10340;53.664;9.908;2023-03-05T12:37:13;5.40;99.90
20364;DHT22;10340;53.664;9.908;2023-03-05T12:39:46;5.50;99.90
20364;DHT22;10340;53.664;9.908;2023-03-05T12:42:44;5.40;99.90
20364;DHT22;10340;53.664;9.908;2023-03-05T12:45:41;5.40;99.90
20364;DHT22;10340;53.664;9.908;2023-03-05T12:48:45;5.30;99.90
20364;DHT22;10340;53.664;9.908;2023-03-05T12:51:31;5.30;99.90
20364;DHT22;10340;53.664;9.908;2023-03-05T12:54:28;5.20;99.90
20364;DHT22;10340;53.664;9.908;2023-03-05T12:56:56;5.10;99.90
20364;DHT22;10340;53.664;9.908;2023-03-05T12:59:28;5.10;99.90
20364;DHT22;10340;53.664;9.908;2023-03-05T13:02:00;5.10;99.90
20364;DHT22;10340;53.664;9.908;2023-03-05T13:04:33;5.10;99.90
20364;DHT22;10340;53.664;9.908;2023-03-05T13:07:03;5.10;99.90
20364;DHT22;10340;53.664;9.908;2023-03-05T13:09:32;5.00;99.90
20364;DHT22;10340;53.664;9.908;2023-03-05T13:12:02;5.10;99.90
20364;DHT22;10340;53.664;9.908;2023-03-05T13:14:36;5.00;99.90
20364;DHT22;10340;53.664;9.908;2023-03-05T13:17:28;5.00;99.90
20364;DHT22;10340;53.664;9.908;2023-03-05T13:19:58;4.90;99.90
20364;DHT22;10340;53.664;9.908;2023-03-05T13:22:28;5.20;99.90
20364;DHT22;10340;53.664;9.908;2023-03-05T13:25:16;5.40;99.90
20364;DHT22;10340;53.664;9.908;2023-03-05T13:30:22;5.70;99.90
20364;DHT22;10340;53.664;9.908;2023-03-05T13:32:51;5.60;99.90
20364;DHT22;10340;53.664;9.908;2023-03-05T13:35:22;5.70;99.90
20364;DHT22;10340;53.664;9.908;2023-03-05T13:40:20;5.70;99.90
20364;DHT22;10340;53.664;9.908;2023-03-05T13:42:47;5.70;99.90
20364;DHT22;10340;53.664;9.908;2023-03-05T13:45:23;5.60;99.90
20364;DHT22;10340;53.664;9.908;2023-03-05T13:47:58;5.60;99.90
20364;DHT22;10340;53.664;9.908;2023-03-05T13:50:32;5.60;99.90
20364;DHT22;10340;53.664;9.908;2023-03-05T13:53:14;5.60;99.90
20364;DHT22;10340;53.664;9.908;2023-03-05T13:55:42;5.70;99.90
20364;DHT22;10340;53.664;9.908;2023-03-05T13:58:40;5.50;99.90
20364;DHT22;10340;53.664;9.908;2023-03-05T14:01:12;5.40;99.90
20364;DHT22;10340;53.664;9.908;2023-03-05T14:03:40;5.40;99.90
20364;DHT22;10340;53.664;9.908;2023-03-05T14:06:09;5.40;99.90
20364;DHT22;10340;53.664;9.908;2023-03-05T14:08:37;5.40;99.90
20364;DHT22;10340;53.664;9.908;2023-03-05T14:11:14;5.30;99.90
20364;DHT22;10340;53.664;9.908;2023-03-05T14:13:42;5.40;99.90
20364;DHT22;10340;53.664;9.908;2023-03-05T14:16:12;5.30;99.90
20364;DHT22;10340;53.664;9.908;2023-03-05T14:18:53;5.30;99.90
20364;DHT22;10340;53.664;9.908;2023-03-05T14:21:22;5.20;99.90
20364;DHT22;10340;53.664;9.908;2023-03-05T14:23:50;5.30;99.90
20364;DHT22;10340;53.664;9.908;2023-03-05T14:26:26;5.20;99.90
20364;DHT22;10340;53.664;9.908;2023-03-05T14:28:57;5.20;99.90
20364;DHT22;10340;53.664;9.908;2023-03-05T14:31:25;5.20;99.90
20364;DHT22;10340;53.664;9.908;2023-03-05T14:33:53;5.10;99.90
20364;DHT22;10340;53.664;9.908;2023-03-05T14:36:27;5.20;99.90
20364;DHT22;10340;53.664;9.908;2023-03-05T14:38:56;5.20;99.90
20364;DHT22;10340;53.664;9.908;2023-03-05T14:41:36;5.10;99.90
20364;DHT22;10340;53.664;9.908;2023-03-05T14:44:14;5.10;99.90
20364;DHT22;10340;53.664;9.908;2023-03-05T14:46:42;5.00;99.90
20364;DHT22;10340;53.664;9.908;2023-03-05T14:49:09;5.00;99.90
20364;DHT22;10340;53.664;9.908;2023-03-05T14:51:40;5.10;99.90
20364;DHT22;10340;53.664;9.908;2023-03-05T14:54:18;4.90;99.90
20364;DHT22;10340;53.664;9.908;2023-03-05T14:59:14;4.70;99.90
20364;DHT22;10340;53.664;9.908;2023-03-05T15:01:41;4.70;99.90
20364;DHT22;10340;53.664;9.908;2023-03-05T15:04:08;4.60;99.90
20364;DHT22;10340;53.664;9.908;2023-03-05T15:06:38;4.60;99.90
20364;DHT22;10340;53.664;9.908;2023-03-05T15:09:06;4.60;99.90
20364;DHT22;10340;53.664;9.908;2023-03-05T15:11:34;5.10;99.90
20364;DHT22;10340;53.664;9.908;2023-03-05T15:14:01;4.60;99.90
20364;DHT22;10340;53.664;9.908;2023-03-05T15:16:28;4.60;99.90
20364;DHT22;10340;53.664;9.908;2023-03-05T15:18:55;4.50;99.90
20364;DHT22;10340;53.664;9.908;2023-03-05T15:21:22;4.50;99.90
20364;DHT22;10340;53.664;9.908;2023-03-05T15:23:51;4.50;99.90
20364;DHT22;10340;53.664;9.908;2023-03-05T15:26:18;4.40;99.90
20364;DHT22;10340;53.664;9.908;2023-03-05T15:28:46;4.30;99.90
20364;DHT22;10340;53.664;9.908;2023-03-05T15:31:15;4.20;99.90
20364;DHT22;10340;53.664;9.908;2023-03-05T15:33:42;4.10;99.90
20364;DHT22;10340;53.664;9.908;2023-03-05T15:36:09;4.10;99.90
20364;DHT22;10340;53.664;9.908;2023-03-05T15:38:38;4.10;99.90
20364;DHT22;10340;53.664;9.908;2023-03-05T15:41:07;4.10;99.90
20364;DHT22;10340;53.664;9.908;2023-03-05T15:43:36;4.10;99.90
20364;DHT22;10340;53.664;9.908;2023-03-05T15:46:04;4.10;99.90
20364;DHT22;10340;53.664;9.908;2023-03-05T15:48:31;4.10;99.90
20364;DHT22;10340;53.664;9.908;2023-03-05T15:50:58;4.00;99.90
20364;DHT22;10340;53.664;9.908;2023-03-05T15:53:26;4.00;99.90
20364;DHT22;10340;53.664;9.908;2023-03-05T15:55:53;3.90;99.90
20364;DHT22;10340;53.664;9.908;2023-03-05T15:58:21;3.90;99.90
20364;DHT22;10340;53.664;9.908;2023-03-05T16:00:48;3.90;99.90
20364;DHT22;10340;53.664;9.908;2023-03-05T16:03:16;3.80;99.90
20364;DHT22;10340;53.664;9.908;2023-03-05T16:05:43;3.90;99.90
20364;DHT22;10340;53.664;9.908;2023-03-05T16:08:10;3.80;99.90
20364;DHT22;10340;53.664;9.908;2023-03-05T16:10:37;3.80;99.90
20364;DHT22;10340;53.664;9.908;2023-03-05T16:13:08;3.80;99.90
20364;DHT22;10340;53.664;9.908;2023-03-05T16:15:39;3.80;99.90
20364;DHT22;10340;53.664;9.908;2023-03-05T16:18:09;3.80;99.90
20364;DHT22;10340;53.664;9.908;2023-03-05T16:20:37;3.70;99.90
20364;DHT22;10340;53.664;9.908;2023-03-05T16:23:05;3.80;99.90
20364;DHT22;10340;53.664;9.908;2023-03-05T16:25:37;3.20;99.90
20364;DHT22;10340;53.664;9.908;2023-03-05T16:28:04;3.50;99.90
20364;DHT22;10340;53.664;9.908;2023-03-05T16:30:40;4.40;99.90
20364;DHT22;10340;53.664;9.908;2023-03-05T16:35:38;4.30;99.90
20364;DHT22;10340;53.664;9.908;2023-03-05T16:40:39;3.50;99.90